createdAt,value
2023-04-13T00:01:40.801Z,6.15
2023-04-13T00:04:26.822Z,5.30
2023-04-13T00:07:14.914Z,5.30
2023-04-13T00:10:03.370Z,5.82
2023-04-13T00:12:49.210Z,6.03
2023-04-13T00:15:39.244Z,7.18
2023-04-13T00:18:24.186Z,5.60
2023-04-13T00:21:09.700Z,6.82
2023-04-13T00:23:54.914Z,6.07
2023-04-13T00:26:40.233Z,6.65
2023-04-13T00:29:25.539Z,5.82
2023-04-13T00:32:10.915Z,6.45
2023-04-13T00:34:56.305Z,6.13
2023-04-13T00:37:43.128Z,5.18
2023-04-13T00:40:30.279Z,6.85
2023-04-13T00:43:16.237Z,6.43
2023-04-13T00:46:01.848Z,6.90
2023-04-13T00:48:48.424Z,6.30
2023-04-13T00:51:34.353Z,7.28
2023-04-13T00:54:19.548Z,7.18
2023-04-13T00:57:05.573Z,8.65
2023-04-13T00:59:52.851Z,9.30
2023-04-13T01:02:42.672Z,8.80
2023-04-13T01:05:35.423Z,9.63
2023-04-13T01:08:36.157Z,10.23
2023-04-13T01:11:54.189Z,10.10
2023-04-13T01:14:56.126Z,11.40
2023-04-13T01:17:45.066Z,9.98
2023-04-13T01:20:31.918Z,9.10
2023-04-13T01:23:29.732Z,9.85
2023-04-13T01:26:17.272Z,9.07
2023-04-13T01:29:02.756Z,9.40
2023-04-13T01:31:49.383Z,8.68
2023-04-13T01:34:34.970Z,8.52
2023-04-13T01:37:20.929Z,8.40
2023-04-13T01:40:10.009Z,8.50
2023-04-13T01:42:56.128Z,8.07
2023-04-13T01:45:49.687Z,8.52
2023-04-13T01:48:40.475Z,8.27
2023-04-13T01:51:32.264Z,6.75
2023-04-13T01:54:25.754Z,6.95
2023-04-13T01:57:12.798Z,6.25
2023-04-13T01:59:58.797Z,6.40
2023-04-13T02:02:45.341Z,7.47
2023-04-13T02:05:32.182Z,6.82
2023-04-13T02:08:20.749Z,7.45
2023-04-13T02:13:53.583Z,11.27
2023-04-13T02:16:39.083Z,11.88
2023-04-13T02:19:24.896Z,11.60
2023-04-13T02:22:10.182Z,10.13
2023-04-13T02:24:56.698Z,9.70
2023-04-13T02:27:42.228Z,10.50
2023-04-13T02:30:28.126Z,10.85
2023-04-13T02:33:13.509Z,10.98
2023-04-13T02:35:59.425Z,10.52
2023-04-13T02:38:44.918Z,10.18
2023-04-13T02:41:30.215Z,8.75
2023-04-13T02:44:15.884Z,8.80
2023-04-13T02:47:01.474Z,8.20
2023-04-13T02:49:46.984Z,9.50
2023-04-13T02:52:32.024Z,8.43
2023-04-13T02:55:18.062Z,8.27
2023-04-13T02:58:04.773Z,7.30
2023-04-13T03:00:50.584Z,7.55
2023-04-13T03:03:35.830Z,7.22
2023-04-13T03:06:24.190Z,6.72
2023-04-13T03:09:10.080Z,5.68
2023-04-13T03:11:56.577Z,6.85
2023-04-13T03:14:41.661Z,6.15
2023-04-13T03:17:28.324Z,7.07
2023-04-13T03:20:15.442Z,6.55
2023-04-13T03:23:01.953Z,7.00
2023-04-13T03:25:47.260Z,6.45
2023-04-13T03:28:32.588Z,7.40
2023-04-13T03:31:18.136Z,6.82
2023-04-13T03:34:03.282Z,6.18
2023-04-13T03:36:49.102Z,5.78
2023-04-13T03:39:34.425Z,6.53
2023-04-13T03:42:19.601Z,6.68
2023-04-13T03:45:06.650Z,6.82
2023-04-13T03:47:52.454Z,8.02
2023-04-13T03:50:37.632Z,8.80
2023-04-13T03:53:23.120Z,8.80
2023-04-13T03:56:08.738Z,8.55
2023-04-13T03:58:56.989Z,8.48
2023-04-13T04:01:42.097Z,7.80
2023-04-13T04:04:27.649Z,8.02
2023-04-13T04:07:13.407Z,8.32
2023-04-13T04:09:58.708Z,7.13
2023-04-13T04:12:44.124Z,7.28
2023-04-13T04:15:29.370Z,6.85
2023-04-13T04:18:14.702Z,7.15
2023-04-13T04:21:02.950Z,6.60
2023-04-13T04:23:48.511Z,7.38
2023-04-13T04:26:33.491Z,6.75
2023-04-13T04:29:36.860Z,6.45
2023-04-13T04:32:24.099Z,6.07
2023-04-13T04:35:12.160Z,6.35
2023-04-13T04:37:58.081Z,6.68
2023-04-13T04:40:45.217Z,6.20
2023-04-13T04:43:30.506Z,7.25
2023-04-13T04:46:17.039Z,7.78
2023-04-13T04:49:02.997Z,8.60
2023-04-13T04:51:49.054Z,8.38
2023-04-13T04:54:34.355Z,8.65
2023-04-13T04:57:20.684Z,9.25
2023-04-13T05:00:18.280Z,7.75
2023-04-13T05:03:03.350Z,7.15
2023-04-13T05:05:48.678Z,7.95
2023-04-13T05:08:34.616Z,8.48
2023-04-13T05:11:20.667Z,7.70
2023-04-13T05:14:05.720Z,7.35
2023-04-13T05:16:51.515Z,7.15
2023-04-13T05:19:38.659Z,7.63
2023-04-13T05:22:24.636Z,8.63
2023-04-13T05:25:10.535Z,8.55
2023-04-13T05:27:56.307Z,6.43
2023-04-13T05:30:41.546Z,6.40
2023-04-13T05:33:26.836Z,6.72
2023-04-13T05:36:11.911Z,6.18
2023-04-13T05:38:58.102Z,7.35
2023-04-13T05:41:43.422Z,8.38
2023-04-13T05:44:28.661Z,8.50
2023-04-13T05:47:13.550Z,8.20
2023-04-13T05:49:58.776Z,8.80
2023-04-13T05:52:44.139Z,8.90
2023-04-13T05:55:29.906Z,8.98
2023-04-13T05:58:15.630Z,8.25
2023-04-13T06:01:01.744Z,8.88
2023-04-13T06:03:47.671Z,9.25
2023-04-13T06:06:33.425Z,7.80
2023-04-13T06:09:19.205Z,7.90
2023-04-13T06:12:04.419Z,7.72
2023-04-13T06:14:49.868Z,9.00
2023-04-13T06:17:35.824Z,8.88
2023-04-13T06:20:21.708Z,9.13
2023-04-13T06:23:07.589Z,9.50
2023-04-13T06:25:52.808Z,8.52
2023-04-13T06:28:38.025Z,9.15
2023-04-13T06:31:27.454Z,8.68
2023-04-13T06:34:13.800Z,9.38
2023-04-13T06:36:59.433Z,8.70
2023-04-13T06:39:44.347Z,8.88
2023-04-13T06:42:29.674Z,8.20
2023-04-13T06:45:14.997Z,8.45
2023-04-13T06:48:03.279Z,7.90
2023-04-13T06:50:48.719Z,9.43
2023-04-13T06:53:34.149Z,7.72
2023-04-13T06:56:19.396Z,8.05
2023-04-13T06:59:05.122Z,7.65
2023-04-13T07:01:51.233Z,9.13
2023-04-13T07:04:37.666Z,9.32
2023-04-13T07:07:23.309Z,9.52
2023-04-13T07:10:09.304Z,9.63
2023-04-13T07:12:54.698Z,11.27
2023-04-13T07:15:39.862Z,17.75
2023-04-13T07:18:25.450Z,14.77
2023-04-13T07:21:11.028Z,12.40
2023-04-13T07:23:56.224Z,11.20
2023-04-13T07:26:41.865Z,9.70
2023-04-13T07:29:27.154Z,9.30
2023-04-13T07:32:12.486Z,9.10
2023-04-13T07:35:01.960Z,9.02
2023-04-13T07:37:51.451Z,9.10
2023-04-13T07:40:37.593Z,9.23
2023-04-13T07:43:26.354Z,8.98
2023-04-13T07:48:57.886Z,8.63
2023-04-13T07:51:43.062Z,8.95
2023-04-13T07:54:28.259Z,8.18
2023-04-13T07:57:13.611Z,7.68
2023-04-13T07:59:58.916Z,8.43
2023-04-13T08:02:44.461Z,9.85
2023-04-13T08:05:29.621Z,12.93
2023-04-13T08:08:15.065Z,14.20
2023-04-13T08:11:01.403Z,15.48
2023-04-13T08:13:46.496Z,13.50
2023-04-13T08:16:34.452Z,11.40
2023-04-13T08:19:19.774Z,9.32
2023-04-13T08:22:05.266Z,8.57
2023-04-13T08:24:50.362Z,8.05
2023-04-13T08:27:35.858Z,8.07
2023-04-13T08:30:21.248Z,7.82
2023-04-13T08:33:06.352Z,7.38
2023-04-13T08:35:52.016Z,7.47
2023-04-13T08:38:37.145Z,6.55
2023-04-13T08:41:23.135Z,7.45
2023-04-13T08:44:08.705Z,6.97
2023-04-13T08:46:54.301Z,7.35
2023-04-13T08:49:40.701Z,7.43
2023-04-13T08:52:27.573Z,6.90
2023-04-13T08:55:15.682Z,7.60
2023-04-13T08:58:03.839Z,8.02
2023-04-13T09:00:50.291Z,8.32
2023-04-13T09:03:43.951Z,7.97
2023-04-13T09:06:36.078Z,8.98
2023-04-13T09:09:21.572Z,8.20
2023-04-13T09:12:06.713Z,12.05
2023-04-13T09:14:52.545Z,8.15
2023-04-13T09:17:38.320Z,10.27
2023-04-13T09:20:23.890Z,8.73
2023-04-13T09:23:14.854Z,23.45
2023-04-13T09:26:06.499Z,15.05
2023-04-13T09:28:56.107Z,6.28
2023-04-13T09:31:43.682Z,6.88
2023-04-13T09:34:30.451Z,6.32
2023-04-13T09:37:15.974Z,6.25
2023-04-13T09:40:15.216Z,5.53
2023-04-13T09:43:02.227Z,6.97
2023-04-13T09:45:48.359Z,6.32
2023-04-13T09:48:33.419Z,6.40
2023-04-13T09:51:19.004Z,7.75
2023-04-13T09:54:05.878Z,8.50
2023-04-13T09:56:52.909Z,8.38
2023-04-13T09:59:38.509Z,6.13
2023-04-13T10:02:24.352Z,6.20
2023-04-13T10:05:10.322Z,6.57
2023-04-13T10:07:56.436Z,6.25
2023-04-13T10:10:41.840Z,5.13
2023-04-13T10:13:37.877Z,5.95
2023-04-13T10:16:26.277Z,5.72
2023-04-13T10:19:16.028Z,5.43
2023-04-13T10:22:04.012Z,5.95
2023-04-13T10:24:51.253Z,5.68
2023-04-13T10:27:36.619Z,5.70
2023-04-13T10:30:22.838Z,6.80
2023-04-13T10:33:10.786Z,6.55
2023-04-13T10:36:00.124Z,6.18
2023-04-13T10:38:46.905Z,6.95
2023-04-13T10:41:32.475Z,8.57
2023-04-13T10:44:17.812Z,8.80
2023-04-13T10:47:06.171Z,7.68
2023-04-13T10:49:52.937Z,6.13
2023-04-13T10:52:38.057Z,7.65
2023-04-13T10:55:25.479Z,8.52
2023-04-13T10:58:17.206Z,7.07
2023-04-13T11:01:03.880Z,6.35
2023-04-13T11:04:03.704Z,9.00
2023-04-13T11:06:51.353Z,6.03
2023-04-13T11:09:36.851Z,8.52
2023-04-13T11:12:21.819Z,7.25
2023-04-13T11:15:08.701Z,6.63
2023-04-13T11:18:02.221Z,8.63
2023-04-13T11:20:47.450Z,7.60
2023-04-13T11:23:34.626Z,7.10
2023-04-13T11:26:34.809Z,7.20
2023-04-13T11:29:23.347Z,6.28
2023-04-13T11:32:19.078Z,7.20
2023-04-13T11:35:13.857Z,7.22
2023-04-13T11:37:59.664Z,7.35
2023-04-13T11:40:45.558Z,6.13
2023-04-13T11:43:31.049Z,6.72
2023-04-13T11:46:25.267Z,6.38
2023-04-13T11:49:11.419Z,6.07
2023-04-13T11:51:56.754Z,6.28
2023-04-13T11:54:44.723Z,6.35
2023-04-13T11:57:29.861Z,5.55
2023-04-13T12:00:24.568Z,6.07
2023-04-13T12:06:08.198Z,5.22
2023-04-13T12:09:09.003Z,5.05
2023-04-13T12:12:20.432Z,5.63
2023-04-13T12:18:02.644Z,5.25
2023-04-13T12:20:54.784Z,5.53
2023-04-13T12:23:39.977Z,4.47
2023-04-13T12:27:17.130Z,4.80
2023-04-13T12:29:46.474Z,4.05
2023-04-13T12:32:32.087Z,4.55
2023-04-13T12:35:19.433Z,4.80
2023-04-13T12:38:05.191Z,5.72
2023-04-13T12:40:58.351Z,4.40
2023-04-13T12:43:43.368Z,3.80
2023-04-13T12:46:29.103Z,3.58
2023-04-13T12:49:14.525Z,4.47
2023-04-13T12:51:59.776Z,3.97
2023-04-13T12:54:45.036Z,3.58
2023-04-13T12:57:30.383Z,4.20
2023-04-13T13:00:17.431Z,3.38
2023-04-13T13:03:13.688Z,3.88
2023-04-13T13:06:00.349Z,3.80
2023-04-13T13:08:46.036Z,3.28
2023-04-13T13:11:31.574Z,3.45
2023-04-13T13:14:16.664Z,3.75
2023-04-13T13:17:03.778Z,3.35
2023-04-13T13:19:48.950Z,3.20
2023-04-13T13:22:34.800Z,3.75
2023-04-13T13:25:20.416Z,3.70
2023-04-13T13:28:13.805Z,2.53
2023-04-13T13:31:00.625Z,8.70
2023-04-13T13:33:45.998Z,4.60
2023-04-13T13:36:31.252Z,4.32
2023-04-13T13:39:18.398Z,4.30
2023-04-13T13:42:03.597Z,3.63
2023-04-13T13:44:49.425Z,4.40
2023-04-13T13:47:35.519Z,3.38
2023-04-13T13:50:21.899Z,3.90
2023-04-13T13:53:08.856Z,4.47
2023-04-13T13:55:54.386Z,3.25
2023-04-13T13:58:39.543Z,4.13
2023-04-13T14:01:25.224Z,3.35
2023-04-13T14:04:11.628Z,3.47
2023-04-13T14:06:57.240Z,3.15
2023-04-13T14:09:42.231Z,3.50
2023-04-13T14:12:27.677Z,3.60
2023-04-13T14:15:13.693Z,4.45
2023-04-13T14:18:09.844Z,3.42
2023-04-13T14:20:59.674Z,4.10
2023-04-13T14:23:45.248Z,5.57
2023-04-13T14:26:30.745Z,4.45
2023-04-13T14:29:15.888Z,3.63
2023-04-13T14:32:01.173Z,4.03
2023-04-13T14:34:47.753Z,3.85
2023-04-13T14:37:32.774Z,8.02
2023-04-13T14:40:21.760Z,4.63
2023-04-13T14:43:07.775Z,4.55
2023-04-13T14:45:55.116Z,4.07
2023-04-13T14:48:40.455Z,3.83
2023-04-13T14:51:25.950Z,8.15
2023-04-13T14:54:11.012Z,6.35
2023-04-13T14:56:56.351Z,7.38
2023-04-13T14:59:41.400Z,6.15
2023-04-13T15:02:28.124Z,4.05
2023-04-13T15:05:13.860Z,4.75
2023-04-13T15:07:59.225Z,4.60
2023-04-13T15:10:44.405Z,4.20
2023-04-13T15:13:29.351Z,3.63
2023-04-13T15:16:14.686Z,4.25
2023-04-13T15:19:00.227Z,3.83
2023-04-13T15:21:45.512Z,3.40
2023-04-13T15:24:31.334Z,4.10
2023-04-13T15:27:16.247Z,3.95
2023-04-13T15:30:03.302Z,6.60
2023-04-13T15:32:48.845Z,5.53
2023-04-13T15:35:35.502Z,4.13
2023-04-13T15:38:20.930Z,4.03
2023-04-13T15:41:09.889Z,3.65
2023-04-13T15:43:56.311Z,4.55
2023-04-13T15:46:41.609Z,4.07
2023-04-13T15:49:26.853Z,3.58
2023-04-13T15:52:11.983Z,3.42
2023-04-13T15:54:57.381Z,4.68
2023-04-13T15:57:42.330Z,4.05
2023-04-13T16:00:28.050Z,4.57
2023-04-13T16:03:13.560Z,5.38
2023-04-13T16:05:58.876Z,4.53
2023-04-13T16:08:43.949Z,5.00
2023-04-13T16:11:31.708Z,4.05
2023-04-13T16:14:17.506Z,4.93
2023-04-13T16:17:02.710Z,4.00
2023-04-13T16:19:50.653Z,3.55
2023-04-13T16:22:37.488Z,4.57
2023-04-13T16:25:22.771Z,3.35
2023-04-13T16:28:08.102Z,2.90
2023-04-13T16:30:53.846Z,3.42
2023-04-13T16:33:39.248Z,2.55
2023-04-13T16:36:25.023Z,5.45
2023-04-13T16:39:12.020Z,4.20
2023-04-13T16:41:58.216Z,3.72
2023-04-13T16:44:43.949Z,3.00
2023-04-13T16:47:30.187Z,2.85
2023-04-13T16:50:15.602Z,3.22
2023-04-13T16:53:00.864Z,2.95
2023-04-13T16:55:50.497Z,2.55
2023-04-13T16:58:35.968Z,2.78
2023-04-13T17:01:21.381Z,2.88
2023-04-13T17:04:06.680Z,3.22
2023-04-13T17:06:52.162Z,2.58
2023-04-13T17:09:37.541Z,3.10
2023-04-13T17:12:23.043Z,2.70
2023-04-13T17:15:09.639Z,2.90
2023-04-13T17:17:55.111Z,2.90
2023-04-13T17:20:40.814Z,2.97
2023-04-13T17:23:26.120Z,3.03
2023-04-13T17:26:11.089Z,2.70
2023-04-13T17:28:56.376Z,2.30
2023-04-13T17:31:41.640Z,2.72
2023-04-13T17:34:27.120Z,2.38
2023-04-13T17:37:12.192Z,2.90
2023-04-13T17:39:57.789Z,2.63
2023-04-13T17:42:42.993Z,2.97
2023-04-13T17:45:28.586Z,2.97
2023-04-13T17:48:14.007Z,2.60
2023-04-13T17:50:58.877Z,2.70
2023-04-13T17:53:44.218Z,2.70
2023-04-13T17:56:29.431Z,3.20
2023-04-13T17:59:16.008Z,3.40
2023-04-13T18:02:01.352Z,2.83
2023-04-13T18:04:47.934Z,3.15
2023-04-13T18:07:33.353Z,4.78
2023-04-13T18:10:18.848Z,7.25
2023-04-13T18:13:04.124Z,8.13
2023-04-13T18:15:50.341Z,9.07
2023-04-13T18:18:35.652Z,11.82
2023-04-13T18:21:20.824Z,12.75
2023-04-13T18:24:06.533Z,12.60
2023-04-13T18:26:52.172Z,10.50
2023-04-13T18:29:37.932Z,10.63
2023-04-13T18:32:23.582Z,6.85
2023-04-13T18:35:10.161Z,8.65
2023-04-13T18:37:55.786Z,8.85
2023-04-13T18:40:41.744Z,7.75
2023-04-13T18:43:27.076Z,6.60
2023-04-13T18:46:12.538Z,4.95
2023-04-13T18:48:57.894Z,4.78
2023-04-13T18:51:43.883Z,4.18
2023-04-13T18:54:29.485Z,3.85
2023-04-13T18:57:14.620Z,3.65
2023-04-13T18:59:59.839Z,3.60
2023-04-13T19:02:47.687Z,3.47
2023-04-13T19:05:35.515Z,3.90
2023-04-13T19:08:20.728Z,4.22
2023-04-13T19:11:05.916Z,4.43
2023-04-13T19:13:51.336Z,4.38
2023-04-13T19:16:37.960Z,3.70
2023-04-13T19:19:24.142Z,4.22
2023-04-13T19:22:09.258Z,3.80
2023-04-13T19:24:54.566Z,3.28
2023-04-13T19:27:44.587Z,3.63
2023-04-13T19:30:29.780Z,4.47
2023-04-13T19:33:15.115Z,3.83
2023-04-13T19:36:00.312Z,3.38
2023-04-13T19:38:45.638Z,4.00
2023-04-13T19:41:35.662Z,3.42
2023-04-13T19:44:20.712Z,4.30
2023-04-13T19:47:05.989Z,3.55
2023-04-13T19:49:51.217Z,4.18
2023-04-13T19:52:36.473Z,4.68
2023-04-13T19:55:21.906Z,5.97
2023-04-13T19:58:08.040Z,6.53
2023-04-13T20:00:54.380Z,6.45
2023-04-13T20:03:40.410Z,6.88
2023-04-13T20:06:27.266Z,5.65
2023-04-13T20:09:14.310Z,4.93
2023-04-13T20:11:59.306Z,4.05
2023-04-13T20:14:46.308Z,5.05
2023-04-13T20:17:31.377Z,5.05
2023-04-13T20:20:17.925Z,6.05
2023-04-13T20:23:03.292Z,5.40
2023-04-13T20:25:48.721Z,6.18
2023-04-13T20:28:33.962Z,6.85
2023-04-13T20:31:19.201Z,5.78
2023-04-13T20:34:04.638Z,5.10
2023-04-13T20:36:50.321Z,6.15
2023-04-13T20:39:36.793Z,6.03
2023-04-13T20:42:22.504Z,6.97
2023-04-13T20:45:14.135Z,5.43
2023-04-13T20:51:09.658Z,5.75
2023-04-13T20:53:55.484Z,6.88
2023-04-13T20:56:40.645Z,6.05
2023-04-13T20:59:26.069Z,6.10
2023-04-13T21:02:11.869Z,5.13
2023-04-13T21:04:57.329Z,3.75
2023-04-13T21:07:42.924Z,4.75
2023-04-13T21:10:28.286Z,4.90
2023-04-13T21:13:16.149Z,3.90
2023-04-13T21:16:01.575Z,3.95
2023-04-13T21:18:46.924Z,4.00
2023-04-13T21:21:32.814Z,3.78
2023-04-13T21:24:17.773Z,4.18
2023-04-13T21:27:03.161Z,4.40
2023-04-13T21:29:48.447Z,3.90
2023-04-13T21:32:33.670Z,3.63
2023-04-13T21:35:19.526Z,4.38
2023-04-13T21:38:05.947Z,4.43
2023-04-13T21:40:51.434Z,4.72
2023-04-13T21:43:36.529Z,3.63
2023-04-13T21:46:21.951Z,3.65
2023-04-13T21:49:07.489Z,3.45
2023-04-13T21:51:52.708Z,4.38
2023-04-13T21:54:38.101Z,4.20
2023-04-13T21:57:23.292Z,3.13
2023-04-13T22:00:09.383Z,4.15
2023-04-13T22:02:55.497Z,4.10
2023-04-13T22:05:41.008Z,5.07
2023-04-13T22:08:26.329Z,4.68
2023-04-13T22:11:11.925Z,3.88
2023-04-13T22:13:56.991Z,4.72
2023-04-13T22:16:42.480Z,4.10
2023-04-13T22:19:27.741Z,3.65
2023-04-13T22:22:13.111Z,3.22
2023-04-13T22:24:58.197Z,3.33
2023-04-13T22:27:43.964Z,3.08
2023-04-13T22:30:29.686Z,4.53
2023-04-13T22:33:15.317Z,3.65
2023-04-13T22:36:00.452Z,4.35
2023-04-13T22:38:49.810Z,3.85
2023-04-13T22:41:35.193Z,3.45
2023-04-13T22:44:20.599Z,3.35
2023-04-13T22:47:06.044Z,3.88
2023-04-13T22:49:51.554Z,5.57
2023-04-13T22:52:36.750Z,3.10
2023-04-13T22:55:22.073Z,4.65
2023-04-13T22:58:07.485Z,5.22
2023-04-13T23:00:52.778Z,6.55
2023-04-13T23:03:38.184Z,4.47
2023-04-13T23:06:23.479Z,6.20
2023-04-13T23:09:09.037Z,5.22
2023-04-13T23:11:54.361Z,5.47
2023-04-13T23:14:40.444Z,4.63
2023-04-13T23:17:25.505Z,5.03
2023-04-13T23:20:11.283Z,3.85
2023-04-13T23:22:56.594Z,3.42
2023-04-13T23:25:41.864Z,3.50
2023-04-13T23:28:27.091Z,3.03
2023-04-13T23:31:12.454Z,3.10
2023-04-13T23:33:57.710Z,3.20
2023-04-13T23:36:43.109Z,3.03
2023-04-13T23:39:28.344Z,3.25
2023-04-13T23:42:13.771Z,3.67
2023-04-13T23:44:59.048Z,3.45
2023-04-13T23:47:44.326Z,2.70
2023-04-13T23:50:29.568Z,2.92
2023-04-13T23:53:14.793Z,2.97
2023-04-13T23:56:00.268Z,3.90
2023-04-13T23:58:45.540Z,4.32
